createdAt,value
2023-05-09T00:01:47.617Z,15.20
2023-05-09T00:03:49.300Z,15.20
2023-05-09T00:05:51.113Z,16.00
2023-05-09T00:07:53.173Z,16.40
2023-05-09T00:09:54.902Z,15.20
2023-05-09T00:11:57.846Z,16.20
2023-05-09T00:13:59.531Z,16.37
2023-05-09T00:16:01.122Z,15.30
2023-05-09T00:18:02.994Z,15.93
2023-05-09T00:20:06.640Z,16.27
2023-05-09T00:22:08.519Z,15.17
2023-05-09T00:24:10.093Z,14.93
2023-05-09T00:26:11.768Z,16.37
2023-05-09T00:28:14.851Z,16.07
2023-05-09T00:30:16.775Z,15.97
2023-05-09T00:32:18.502Z,14.60
2023-05-09T00:34:20.321Z,17.53
2023-05-09T00:36:21.919Z,17.47
2023-05-09T00:38:24.127Z,17.20
2023-05-09T00:40:25.860Z,16.53
2023-05-09T00:42:27.678Z,17.53
2023-05-09T00:44:30.714Z,16.63
2023-05-09T00:46:32.658Z,16.57
2023-05-09T00:48:35.458Z,15.93
2023-05-09T00:50:37.089Z,16.37
2023-05-09T00:52:38.858Z,15.90
2023-05-09T00:54:40.518Z,16.77
2023-05-09T00:56:42.246Z,15.57
2023-05-09T00:58:43.975Z,17.37
2023-05-09T01:00:47.231Z,16.37
2023-05-09T01:02:54.191Z,16.80
2023-05-09T01:04:56.079Z,17.07
2023-05-09T01:07:03.896Z,16.90
2023-05-09T01:09:15.544Z,15.43
2023-05-09T01:11:23.130Z,17.13
2023-05-09T01:13:31.999Z,17.27
2023-05-09T01:15:39.446Z,15.27
2023-05-09T01:17:51.613Z,16.67
2023-05-09T01:20:00.202Z,16.97
2023-05-09T01:22:07.373Z,17.20
2023-05-09T01:24:39.813Z,15.93
2023-05-09T01:26:46.592Z,16.50
2023-05-09T01:29:08.347Z,18.40
2023-05-09T01:31:11.871Z,16.67
2023-05-09T01:33:18.228Z,18.77
2023-05-09T01:35:24.011Z,17.67
2023-05-09T01:37:31.371Z,15.40
2023-05-09T01:39:34.308Z,17.23
2023-05-09T01:41:37.997Z,17.03
2023-05-09T01:43:42.260Z,17.17
2023-05-09T01:45:45.413Z,18.10
2023-05-09T01:47:49.268Z,21.13
2023-05-09T01:49:52.428Z,18.33
2023-05-09T01:51:55.550Z,18.13
2023-05-09T01:53:59.548Z,17.90
2023-05-09T01:56:03.007Z,17.70
2023-05-09T01:58:06.038Z,17.30
2023-05-09T02:00:09.347Z,17.10
2023-05-09T02:02:12.116Z,19.27
2023-05-09T02:04:16.473Z,15.87
2023-05-09T02:06:20.437Z,17.87
2023-05-09T02:08:23.051Z,18.43
2023-05-09T02:10:26.495Z,16.80
2023-05-09T02:12:28.492Z,18.43
2023-05-09T02:14:30.219Z,19.70
2023-05-09T02:16:32.515Z,17.60
2023-05-09T02:18:34.382Z,17.60
2023-05-09T02:20:37.389Z,18.00
2023-05-09T02:22:40.821Z,17.20
2023-05-09T02:24:43.789Z,17.67
2023-05-09T02:26:45.748Z,18.63
2023-05-09T02:28:48.346Z,18.17
2023-05-09T02:30:52.583Z,16.43
2023-05-09T02:33:01.999Z,19.47
2023-05-09T02:35:06.383Z,19.77
2023-05-09T02:37:10.801Z,17.17
2023-05-09T02:39:12.608Z,16.97
2023-05-09T02:41:14.830Z,17.93
2023-05-09T02:43:16.513Z,17.30
2023-05-09T02:45:18.249Z,16.50
2023-05-09T02:47:19.923Z,15.97
2023-05-09T02:49:31.333Z,15.50
2023-05-09T02:51:34.349Z,15.20
2023-05-09T02:53:37.723Z,15.33
2023-05-09T02:55:39.523Z,16.93
2023-05-09T02:57:41.182Z,17.00
2023-05-09T02:59:42.832Z,16.63
2023-05-09T03:01:44.588Z,16.47
2023-05-09T03:03:46.329Z,16.87
2023-05-09T03:05:48.114Z,17.83
2023-05-09T03:07:49.919Z,18.93
2023-05-09T03:09:52.941Z,16.40
2023-05-09T03:11:55.564Z,18.23
2023-05-09T03:13:57.290Z,17.80
2023-05-09T03:15:58.903Z,18.73
2023-05-09T03:18:00.654Z,18.47
2023-05-09T03:20:04.250Z,18.10
2023-05-09T03:22:06.253Z,18.90
2023-05-09T03:24:08.296Z,19.40
2023-05-09T03:26:11.326Z,19.13
2023-05-09T03:28:12.956Z,18.87
2023-05-09T03:30:16.227Z,21.10
2023-05-09T03:32:17.919Z,21.40
2023-05-09T03:34:19.558Z,19.73
2023-05-09T03:36:21.355Z,19.57
2023-05-09T03:38:23.134Z,19.90
2023-05-09T03:40:24.917Z,19.10
2023-05-09T03:42:27.969Z,20.40
2023-05-09T03:44:29.595Z,20.93
2023-05-09T03:46:31.307Z,21.17
2023-05-09T03:48:33.389Z,20.80
2023-05-09T03:50:35.488Z,20.97
2023-05-09T03:52:37.076Z,20.63
2023-05-09T03:54:38.660Z,20.43
2023-05-09T03:56:40.382Z,19.83
2023-05-09T03:58:43.653Z,19.17
2023-05-09T04:00:46.646Z,18.73
2023-05-09T04:02:48.957Z,14.87
2023-05-09T04:04:50.718Z,17.30
2023-05-09T04:06:52.755Z,14.90
2023-05-09T04:08:54.505Z,17.20
2023-05-09T04:10:56.396Z,18.13
2023-05-09T04:12:58.033Z,19.33
2023-05-09T04:15:01.314Z,18.50
2023-05-09T04:17:03.655Z,18.83
2023-05-09T04:19:05.456Z,19.43
2023-05-09T04:21:07.507Z,19.70
2023-05-09T04:23:09.812Z,19.20
2023-05-09T04:25:11.464Z,16.93
2023-05-09T04:27:13.262Z,21.60
2023-05-09T04:29:14.972Z,18.93
2023-05-09T04:31:18.569Z,18.27
2023-05-09T04:33:20.539Z,18.53
2023-05-09T04:35:22.586Z,20.17
2023-05-09T04:37:24.717Z,20.20
2023-05-09T04:39:26.585Z,20.77
2023-05-09T04:41:28.206Z,19.27
2023-05-09T04:43:29.868Z,19.50
2023-05-09T04:45:31.803Z,19.10
2023-05-09T04:47:34.864Z,19.60
2023-05-09T04:49:36.904Z,19.70
2023-05-09T04:51:39.928Z,20.33
2023-05-09T04:53:41.990Z,19.63
2023-05-09T04:55:43.730Z,18.50
2023-05-09T04:57:45.651Z,19.53
2023-05-09T04:59:47.476Z,19.70
2023-05-09T05:01:49.249Z,19.00
2023-05-09T05:03:52.561Z,19.40
2023-05-09T05:05:54.300Z,21.23
2023-05-09T05:07:56.216Z,21.97
2023-05-09T05:09:58.215Z,20.23
2023-05-09T05:12:02.659Z,23.50
2023-05-09T05:14:04.876Z,23.00
2023-05-09T05:16:06.926Z,21.97
2023-05-09T05:18:08.780Z,22.00
2023-05-09T05:20:12.060Z,23.60
2023-05-09T05:22:13.880Z,25.77
2023-05-09T05:24:15.495Z,23.37
2023-05-09T05:26:17.076Z,22.70
2023-05-09T05:28:19.953Z,22.80
2023-05-09T05:30:21.592Z,22.83
2023-05-09T05:32:23.192Z,23.97
2023-05-09T05:34:24.733Z,25.73
2023-05-09T05:36:27.614Z,25.03
2023-05-09T05:38:29.293Z,24.37
2023-05-09T05:40:30.997Z,22.47
2023-05-09T05:42:32.905Z,24.23
2023-05-09T05:44:34.497Z,24.30
2023-05-09T05:46:36.152Z,22.90
2023-05-09T05:48:37.753Z,22.57
2023-05-09T05:50:39.462Z,21.90
2023-05-09T05:52:42.487Z,23.50
2023-05-09T05:54:44.091Z,24.00
2023-05-09T05:56:45.673Z,23.30
2023-05-09T05:58:47.338Z,23.50
2023-05-09T06:00:49.347Z,23.40
2023-05-09T06:02:50.966Z,23.80
2023-05-09T06:04:54.650Z,25.20
2023-05-09T06:06:57.937Z,24.50
2023-05-09T06:09:01.024Z,23.73
2023-05-09T06:11:02.822Z,23.77
2023-05-09T06:13:04.496Z,24.33
2023-05-09T06:15:07.138Z,25.30
2023-05-09T06:17:08.953Z,23.10
2023-05-09T06:19:10.589Z,23.13
2023-05-09T06:21:12.236Z,24.37
2023-05-09T06:23:13.994Z,23.30
2023-05-09T06:25:17.243Z,26.80
2023-05-09T06:27:19.014Z,25.10
2023-05-09T06:29:20.916Z,25.70
2023-05-09T06:31:23.531Z,24.83
2023-05-09T06:33:27.073Z,26.20
2023-05-09T06:35:28.747Z,28.40
2023-05-09T06:37:33.190Z,34.43
2023-05-09T06:39:34.766Z,27.53
2023-05-09T06:41:37.771Z,28.20
2023-05-09T06:43:39.314Z,29.67
2023-05-09T06:45:40.908Z,28.70
2023-05-09T06:47:42.654Z,32.33
2023-05-09T06:49:44.264Z,30.20
2023-05-09T06:51:45.841Z,30.13
2023-05-09T06:53:47.525Z,31.17
2023-05-09T06:55:49.304Z,30.57
2023-05-09T06:57:52.275Z,31.40
2023-05-09T06:59:53.988Z,30.63
2023-05-09T07:01:55.659Z,32.90
2023-05-09T07:03:57.314Z,32.27
2023-05-09T07:05:58.948Z,30.57
2023-05-09T07:08:00.676Z,32.47
2023-05-09T07:12:07.231Z,32.10
2023-05-09T07:14:10.231Z,31.60
2023-05-09T07:16:11.823Z,32.73
2023-05-09T07:18:13.449Z,33.87
2023-05-09T07:20:15.157Z,35.20
2023-05-09T07:22:16.894Z,33.40
2023-05-09T07:24:18.678Z,30.97
2023-05-09T07:26:20.333Z,36.07
2023-05-09T07:28:22.021Z,33.00
2023-05-09T07:30:25.618Z,35.50
2023-05-09T07:32:27.400Z,36.87
2023-05-09T07:34:29.073Z,32.27
2023-05-09T07:36:30.736Z,33.43
2023-05-09T07:38:32.337Z,33.03
2023-05-09T07:40:34.013Z,31.70
2023-05-09T07:42:35.742Z,34.20
2023-05-09T07:44:37.415Z,31.17
2023-05-09T07:46:40.477Z,34.70
2023-05-09T07:48:42.103Z,31.50
2023-05-09T07:50:44.992Z,31.97
2023-05-09T07:52:46.580Z,33.00
2023-05-09T07:54:48.216Z,29.20
2023-05-09T07:56:49.843Z,29.57
2023-05-09T07:58:53.656Z,28.67
2023-05-09T08:00:57.053Z,28.87
2023-05-09T08:03:00.236Z,28.90
2023-05-09T08:05:01.997Z,28.80
2023-05-09T08:07:03.879Z,28.17
2023-05-09T08:09:05.706Z,30.03
2023-05-09T08:11:07.336Z,26.73
2023-05-09T08:13:09.067Z,27.73
2023-05-09T08:15:11.688Z,29.90
2023-05-09T08:17:13.410Z,32.90
2023-05-09T08:19:16.549Z,29.80
2023-05-09T08:21:20.236Z,30.00
2023-05-09T08:23:23.243Z,29.40
2023-05-09T08:25:25.034Z,30.13
2023-05-09T08:27:26.578Z,29.93
2023-05-09T08:29:28.464Z,30.97
2023-05-09T08:31:30.191Z,32.50
2023-05-09T08:33:31.820Z,32.27
2023-05-09T08:35:35.272Z,30.33
2023-05-09T08:37:37.039Z,30.37
2023-05-09T08:39:38.657Z,32.03
2023-05-09T08:41:40.566Z,31.27
2023-05-09T08:43:42.703Z,29.63
2023-05-09T08:45:47.210Z,29.53
2023-05-09T08:47:49.214Z,32.30
2023-05-09T08:49:52.791Z,28.37
2023-05-09T08:51:56.645Z,31.60
2023-05-09T08:53:59.196Z,30.10
2023-05-09T08:56:01.272Z,31.03
2023-05-09T08:58:03.492Z,29.20
2023-05-09T09:00:05.516Z,28.70
2023-05-09T09:02:07.762Z,30.90
2023-05-09T09:04:10.537Z,29.17
2023-05-09T09:06:12.151Z,30.33
2023-05-09T09:08:15.430Z,28.50
2023-05-09T09:10:17.492Z,31.13
2023-05-09T09:12:22.506Z,27.37
2023-05-09T09:14:25.571Z,29.87
2023-05-09T09:16:29.339Z,28.23
2023-05-09T09:18:33.896Z,26.87
2023-05-09T09:20:40.754Z,27.87
2023-05-09T09:22:43.783Z,29.13
2023-05-09T09:24:47.108Z,27.53
2023-05-09T09:26:50.604Z,27.20
2023-05-09T09:28:52.313Z,26.13
2023-05-09T09:30:54.196Z,27.97
2023-05-09T09:32:59.249Z,27.97
2023-05-09T09:35:04.879Z,26.90
2023-05-09T09:37:06.760Z,26.77
2023-05-09T09:39:08.461Z,26.80
2023-05-09T09:41:13.049Z,27.90
2023-05-09T09:43:14.784Z,26.20
2023-05-09T09:45:18.485Z,27.70
2023-05-09T09:47:20.066Z,26.10
2023-05-09T09:49:23.270Z,27.90
2023-05-09T09:51:27.650Z,24.77
2023-05-09T09:53:29.422Z,25.87
2023-05-09T09:55:31.700Z,26.13
2023-05-09T09:57:38.959Z,24.80
2023-05-09T09:59:40.570Z,26.00
2023-05-09T10:01:59.634Z,26.50
2023-05-09T10:04:03.224Z,24.50
2023-05-09T10:06:05.642Z,23.53
2023-05-09T10:08:07.209Z,25.33
2023-05-09T10:10:09.897Z,24.70
2023-05-09T10:12:12.263Z,25.67
2023-05-09T10:14:15.889Z,23.20
2023-05-09T10:16:19.508Z,23.80
2023-05-09T10:18:28.263Z,24.63
2023-05-09T10:20:31.564Z,25.67
2023-05-09T10:22:34.459Z,26.50
2023-05-09T10:24:42.487Z,25.37
2023-05-09T10:26:48.927Z,25.87
2023-05-09T10:28:54.874Z,24.40
2023-05-09T10:31:05.932Z,22.60
2023-05-09T10:33:09.772Z,21.60
2023-05-09T10:35:11.932Z,23.53
2023-05-09T10:37:14.277Z,25.40
2023-05-09T10:39:17.249Z,22.43
2023-05-09T10:41:20.694Z,23.00
2023-05-09T10:43:23.144Z,23.07
2023-05-09T10:45:25.583Z,22.47
2023-05-09T10:47:29.436Z,21.40
2023-05-09T10:49:32.052Z,18.00
2023-05-09T10:51:34.782Z,20.77
2023-05-09T10:53:44.214Z,19.73
2023-05-09T10:55:49.922Z,19.03
2023-05-09T10:57:53.731Z,20.10
2023-05-09T10:59:56.150Z,21.60
2023-05-09T11:01:58.213Z,20.50
2023-05-09T11:04:02.231Z,18.80
2023-05-09T11:06:04.085Z,17.33
2023-05-09T11:08:22.326Z,18.43
2023-05-09T11:10:23.922Z,19.07
2023-05-09T11:12:25.789Z,18.87
2023-05-09T11:14:39.270Z,18.87
2023-05-09T11:16:59.032Z,17.07
2023-05-09T11:19:02.357Z,18.40
2023-05-09T11:21:08.378Z,14.43
2023-05-09T11:23:10.205Z,15.33
2023-05-09T11:25:13.568Z,15.13
2023-05-09T11:27:16.656Z,13.83
2023-05-09T11:29:18.286Z,11.83
2023-05-09T11:31:19.953Z,11.90
2023-05-09T11:33:22.426Z,12.13
2023-05-09T11:35:25.546Z,12.63
2023-05-09T11:37:31.323Z,13.17
2023-05-09T11:39:32.949Z,12.90
2023-05-09T11:41:40.777Z,11.43
2023-05-09T11:43:43.306Z,11.33
2023-05-09T11:45:46.341Z,11.40
2023-05-09T11:47:49.106Z,11.17
2023-05-09T11:49:51.226Z,11.00
2023-05-09T11:51:54.166Z,11.27
2023-05-09T11:53:55.785Z,11.00
2023-05-09T11:55:57.631Z,10.33
2023-05-09T11:57:59.474Z,10.07
2023-05-09T12:00:01.600Z,11.50
2023-05-09T12:02:04.541Z,10.57
2023-05-09T12:04:06.850Z,10.80
2023-05-09T12:06:08.997Z,9.77
2023-05-09T12:08:13.667Z,11.93
2023-05-09T12:10:17.073Z,11.90
2023-05-09T12:12:18.725Z,12.50
2023-05-09T12:14:27.427Z,11.30
2023-05-09T12:16:29.155Z,11.97
2023-05-09T12:18:30.793Z,11.60
2023-05-09T12:20:43.233Z,11.87
2023-05-09T12:22:44.957Z,11.63
2023-05-09T12:24:49.485Z,11.10
2023-05-09T12:26:51.326Z,12.20
2023-05-09T12:28:53.015Z,11.67
2023-05-09T12:30:55.272Z,12.70
2023-05-09T12:32:58.197Z,12.70
2023-05-09T12:35:00.377Z,13.10
2023-05-09T12:37:02.140Z,11.43
2023-05-09T12:39:08.915Z,11.10
2023-05-09T12:41:30.983Z,11.37
2023-05-09T12:43:35.795Z,12.27
2023-05-09T12:45:39.160Z,11.00
2023-05-09T12:47:41.411Z,11.97
2023-05-09T12:49:43.166Z,12.07
2023-05-09T12:51:48.665Z,12.97
2023-05-09T12:53:50.295Z,12.17
2023-05-09T12:55:55.197Z,11.40
2023-05-09T12:57:59.997Z,11.43
2023-05-09T13:00:03.219Z,10.87
2023-05-09T13:02:04.813Z,10.33
2023-05-09T13:04:07.161Z,11.50
2023-05-09T13:06:13.466Z,12.13
2023-05-09T13:08:15.153Z,10.23
2023-05-09T13:10:18.095Z,11.27
2023-05-09T13:12:19.682Z,11.83
2023-05-09T13:14:23.317Z,10.07
2023-05-09T13:16:25.175Z,8.33
2023-05-09T13:18:26.735Z,8.90
2023-05-09T13:20:28.320Z,8.40
2023-05-09T13:22:30.072Z,9.70
2023-05-09T13:24:31.655Z,9.50
2023-05-09T13:26:33.421Z,10.20
2023-05-09T13:28:35.406Z,8.57
2023-05-09T13:30:38.331Z,11.03
2023-05-09T13:32:40.052Z,11.13
2023-05-09T13:34:42.136Z,11.57
2023-05-09T13:36:43.852Z,10.07
2023-05-09T13:38:45.476Z,11.00
2023-05-09T13:40:47.108Z,9.30
2023-05-09T13:42:48.703Z,8.80
2023-05-09T13:44:50.268Z,10.07
2023-05-09T13:46:53.302Z,9.27
2023-05-09T13:48:54.935Z,9.57
2023-05-09T13:50:56.503Z,13.70
2023-05-09T13:52:58.138Z,8.90
2023-05-09T13:54:59.729Z,8.77
2023-05-09T13:57:02.374Z,8.63
2023-05-09T13:59:04.054Z,10.30
2023-05-09T14:01:05.985Z,9.93
2023-05-09T14:03:09.028Z,8.30
2023-05-09T14:05:10.700Z,8.40
2023-05-09T14:07:12.317Z,9.17
2023-05-09T14:09:14.242Z,9.80
2023-05-09T14:11:15.922Z,9.43
2023-05-09T14:13:17.810Z,10.53
2023-05-09T14:15:19.932Z,9.03
2023-05-09T14:17:21.842Z,10.20
2023-05-09T14:19:25.059Z,9.43
2023-05-09T14:21:26.712Z,9.40
2023-05-09T14:23:28.290Z,9.00
2023-05-09T14:25:29.880Z,8.27
2023-05-09T14:27:31.544Z,9.50
2023-05-09T14:29:33.189Z,13.43
2023-05-09T14:31:34.950Z,11.33
2023-05-09T14:33:38.335Z,10.47
2023-05-09T14:35:41.803Z,10.60
2023-05-09T14:37:43.846Z,10.00
2023-05-09T14:39:45.467Z,8.83
2023-05-09T14:41:47.196Z,11.87
2023-05-09T14:43:48.865Z,11.20
2023-05-09T14:45:52.625Z,11.13
2023-05-09T14:47:54.284Z,12.77
2023-05-09T14:49:56.105Z,11.53
2023-05-09T14:51:59.121Z,12.70
2023-05-09T14:54:03.857Z,10.93
2023-05-09T14:56:06.542Z,10.93
2023-05-09T14:58:08.149Z,10.57
2023-05-09T15:00:20.507Z,10.30
2023-05-09T15:02:23.275Z,9.47
2023-05-09T15:04:24.913Z,10.03
2023-05-09T15:06:28.671Z,9.43
2023-05-09T15:08:31.626Z,10.17
2023-05-09T15:10:33.470Z,10.03
2023-05-09T15:12:35.068Z,10.13
2023-05-09T15:14:36.826Z,10.37
2023-05-09T15:16:38.445Z,9.90
2023-05-09T15:18:40.234Z,11.00
2023-05-09T15:20:41.813Z,10.33
2023-05-09T15:22:43.564Z,12.73
2023-05-09T15:24:46.617Z,11.73
2023-05-09T15:26:48.353Z,12.40
2023-05-09T15:28:49.969Z,11.40
2023-05-09T15:30:51.687Z,12.50
2023-05-09T15:32:53.271Z,11.97
2023-05-09T15:34:54.913Z,11.83
2023-05-09T15:36:56.505Z,12.30
2023-05-09T15:38:58.110Z,13.27
2023-05-09T15:41:01.344Z,12.80
2023-05-09T15:43:03.076Z,11.17
2023-05-09T15:45:06.004Z,12.97
2023-05-09T15:47:07.786Z,12.10
2023-05-09T15:49:09.366Z,13.43
2023-05-09T15:51:11.249Z,12.60
2023-05-09T15:53:13.083Z,12.33
2023-05-09T15:55:14.724Z,12.43
2023-05-09T15:57:17.723Z,12.90
2023-05-09T15:59:19.317Z,10.93
2023-05-09T16:01:20.883Z,12.07
2023-05-09T16:03:22.766Z,10.80
2023-05-09T16:05:24.570Z,12.43
2023-05-09T16:07:26.509Z,13.07
2023-05-09T16:09:28.102Z,11.60
2023-05-09T16:11:29.716Z,11.20
2023-05-09T16:13:35.649Z,12.57
2023-05-09T16:15:37.591Z,13.50
2023-05-09T16:17:39.242Z,12.83
2023-05-09T16:19:41.200Z,12.63
2023-05-09T16:21:46.092Z,11.63
2023-05-09T16:23:47.725Z,12.70
2023-05-09T16:25:49.300Z,13.00
2023-05-09T16:27:50.896Z,11.40
2023-05-09T16:29:53.801Z,10.33
2023-05-09T16:31:55.488Z,11.70
2023-05-09T16:33:57.328Z,11.87
2023-05-09T16:35:59.024Z,13.10
2023-05-09T16:38:00.665Z,12.20
2023-05-09T16:40:02.745Z,12.37
2023-05-09T16:42:04.561Z,12.53
2023-05-09T16:44:06.389Z,12.00
2023-05-09T16:46:09.336Z,12.17
2023-05-09T16:48:11.051Z,12.17
2023-05-09T16:50:12.960Z,11.80
2023-05-09T16:52:14.749Z,12.43
2023-05-09T16:54:16.410Z,13.23
2023-05-09T16:56:18.075Z,14.00
2023-05-09T16:58:21.267Z,13.50
2023-05-09T17:00:23.437Z,13.70
2023-05-09T17:02:26.398Z,13.23
2023-05-09T17:04:28.021Z,12.50
2023-05-09T17:06:29.647Z,12.07
2023-05-09T17:08:31.208Z,11.23
2023-05-09T17:10:34.154Z,12.63
2023-05-09T17:12:36.928Z,11.67
2023-05-09T17:14:38.567Z,11.67
2023-05-09T17:16:40.161Z,11.73
2023-05-09T17:18:43.307Z,11.47
2023-05-09T17:20:44.944Z,11.30
2023-05-09T17:22:46.581Z,11.77
2023-05-09T17:24:48.144Z,11.57
2023-05-09T17:26:49.875Z,12.23
2023-05-09T17:28:51.596Z,12.20
2023-05-09T17:30:54.185Z,16.20
2023-05-09T17:32:56.090Z,13.40
2023-05-09T17:34:59.331Z,11.40
2023-05-09T17:37:01.015Z,12.83
2023-05-09T17:39:03.141Z,12.67
2023-05-09T17:41:05.217Z,12.83
2023-05-09T17:43:06.910Z,11.23
2023-05-09T17:45:10.121Z,13.07
2023-05-09T17:47:14.809Z,12.60
2023-05-09T17:49:16.747Z,12.70
2023-05-09T17:51:19.758Z,11.67
2023-05-09T17:53:21.658Z,10.93
2023-05-09T17:55:23.572Z,12.60
2023-05-09T17:57:25.427Z,12.27
2023-05-09T17:59:27.328Z,11.57
2023-05-09T18:01:31.151Z,12.13
2023-05-09T18:03:33.150Z,11.67
2023-05-09T18:05:34.837Z,11.27
2023-05-09T18:07:39.642Z,11.97
2023-05-09T18:09:41.445Z,14.47
2023-05-09T18:11:43.293Z,12.83
2023-05-09T18:13:45.178Z,10.33
2023-05-09T18:15:47.133Z,9.03
2023-05-09T18:17:48.824Z,9.40
2023-05-09T18:19:50.467Z,8.87
2023-05-09T18:21:52.325Z,5.00
2023-05-09T18:23:55.352Z,5.40
2023-05-09T18:25:57.134Z,6.40
2023-05-09T18:27:58.780Z,4.20
2023-05-09T18:30:00.400Z,4.17
2023-05-09T18:32:02.124Z,3.23
2023-05-09T18:34:03.896Z,5.00
2023-05-09T18:36:06.539Z,4.43
2023-05-09T18:38:08.344Z,6.73
2023-05-09T18:40:14.476Z,4.33
2023-05-09T18:42:16.637Z,5.07
2023-05-09T18:44:18.723Z,5.93
2023-05-09T18:46:20.493Z,4.60
2023-05-09T18:48:22.109Z,5.10
2023-05-09T18:50:24.202Z,6.43
2023-05-09T18:52:26.350Z,4.80
2023-05-09T18:54:28.059Z,6.47
2023-05-09T18:56:31.119Z,5.50
2023-05-09T18:58:33.202Z,6.80
2023-05-09T19:00:35.883Z,5.63
2023-05-09T19:02:37.870Z,5.03
2023-05-09T19:04:40.047Z,5.27
2023-05-09T19:06:42.394Z,5.10
2023-05-09T19:08:44.436Z,4.77
2023-05-09T19:10:46.413Z,7.40
2023-05-09T19:12:50.110Z,7.40
2023-05-09T19:14:52.270Z,4.17
2023-05-09T19:16:54.030Z,5.53
2023-05-09T19:18:55.752Z,5.63
2023-05-09T19:20:59.099Z,5.40
2023-05-09T19:23:02.685Z,6.00
2023-05-09T19:25:05.059Z,6.23
2023-05-09T19:27:07.067Z,8.67
2023-05-09T19:29:11.292Z,7.03
2023-05-09T19:31:14.751Z,6.80
2023-05-09T19:33:17.450Z,7.13
2023-05-09T19:35:21.260Z,7.00
2023-05-09T19:37:23.576Z,7.50
2023-05-09T19:39:26.070Z,7.30
2023-05-09T19:41:27.861Z,6.10
2023-05-09T19:43:29.503Z,8.40
2023-05-09T19:45:32.830Z,7.17
2023-05-09T19:47:34.577Z,7.50
2023-05-09T19:49:36.261Z,6.27
2023-05-09T19:51:38.852Z,5.50
2023-05-09T19:53:40.781Z,7.50
2023-05-09T19:55:42.434Z,5.73
2023-05-09T19:57:45.094Z,5.43
2023-05-09T19:59:48.087Z,6.30
2023-05-09T20:01:51.166Z,5.90
2023-05-09T20:03:53.607Z,5.53
2023-05-09T20:05:55.798Z,4.60
2023-05-09T20:07:57.627Z,4.50
2023-05-09T20:10:00.459Z,5.67
2023-05-09T20:12:02.699Z,4.40
2023-05-09T20:14:04.474Z,5.70
2023-05-09T20:16:07.678Z,6.23
2023-05-09T20:18:13.437Z,5.40
2023-05-09T20:20:15.659Z,5.67
2023-05-09T20:22:17.507Z,4.73
2023-05-09T20:24:19.432Z,5.70
2023-05-09T20:26:22.154Z,6.43
2023-05-09T20:28:25.171Z,4.80
2023-05-09T20:30:27.626Z,5.43
2023-05-09T20:32:29.506Z,5.23
2023-05-09T20:34:34.788Z,5.63
2023-05-09T20:36:36.595Z,5.10
2023-05-09T20:38:39.175Z,5.20
2023-05-09T20:40:40.812Z,5.93
2023-05-09T20:42:43.008Z,5.57
2023-05-09T20:44:51.990Z,7.23
2023-05-09T20:46:53.811Z,5.70
2023-05-09T20:48:56.558Z,5.40
2023-05-09T20:50:59.553Z,7.53
2023-05-09T20:53:01.534Z,5.37
2023-05-09T20:55:03.729Z,5.30
2023-05-09T20:57:05.822Z,7.43
2023-05-09T20:59:07.841Z,5.50
2023-05-09T21:01:09.526Z,4.87
2023-05-09T21:03:11.315Z,6.47
2023-05-09T21:05:12.929Z,5.43
2023-05-09T21:07:16.288Z,5.03
2023-05-09T21:09:17.946Z,4.90
2023-05-09T21:11:19.564Z,5.60
2023-05-09T21:13:21.302Z,3.90
2023-05-09T21:15:23.217Z,5.07
2023-05-09T21:17:25.136Z,4.57
2023-05-09T21:19:28.252Z,8.00
2023-05-09T21:21:30.228Z,7.27
2023-05-09T21:23:33.295Z,4.90
2023-05-09T21:25:35.157Z,5.40
2023-05-09T21:27:36.708Z,6.87
2023-05-09T21:29:38.588Z,4.93
2023-05-09T21:31:40.261Z,4.50
2023-05-09T21:33:42.311Z,4.07
2023-05-09T21:35:45.037Z,4.57
2023-05-09T21:37:46.669Z,5.20
2023-05-09T21:39:49.729Z,4.20
2023-05-09T21:41:51.321Z,4.40
2023-05-09T21:43:52.929Z,4.77
2023-05-09T21:45:55.124Z,3.73
2023-05-09T21:47:57.193Z,5.23
2023-05-09T21:50:00.427Z,9.80
2023-05-09T21:52:02.302Z,3.67
2023-05-09T21:54:05.400Z,3.93
2023-05-09T21:56:09.300Z,3.67
2023-05-09T21:58:10.823Z,5.60
2023-05-09T22:00:14.129Z,4.27
2023-05-09T22:02:16.115Z,4.63
2023-05-09T22:04:17.890Z,5.60
2023-05-09T22:06:19.525Z,4.40
2023-05-09T22:08:23.280Z,4.80
2023-05-09T22:10:25.337Z,4.70
2023-05-09T22:12:28.262Z,4.63
2023-05-09T22:14:29.923Z,5.70
2023-05-09T22:16:31.528Z,4.50
2023-05-09T22:18:34.538Z,4.30
2023-05-09T22:20:36.265Z,4.80
2023-05-09T22:22:39.243Z,4.10
2023-05-09T22:24:40.967Z,3.80
2023-05-09T22:26:43.416Z,4.80
2023-05-09T22:28:47.186Z,4.00
2023-05-09T22:30:48.777Z,4.13
2023-05-09T22:32:50.437Z,5.53
2023-05-09T22:34:52.635Z,5.77
2023-05-09T22:36:54.238Z,7.00
2023-05-09T22:38:55.847Z,4.83
2023-05-09T22:40:57.500Z,5.30
2023-05-09T22:43:00.562Z,4.40
2023-05-09T22:45:04.250Z,3.87
2023-05-09T22:47:06.604Z,3.13
2023-05-09T22:49:08.194Z,3.57
2023-05-09T22:51:09.894Z,3.13
2023-05-09T22:53:11.533Z,3.67
2023-05-09T22:55:13.302Z,2.90
2023-05-09T22:57:14.884Z,3.00
2023-05-09T22:59:16.944Z,2.47
2023-05-09T23:01:20.264Z,2.87
2023-05-09T23:03:22.363Z,2.70
2023-05-09T23:05:26.890Z,3.23
2023-05-09T23:07:28.535Z,2.53
2023-05-09T23:09:30.181Z,2.30
2023-05-09T23:11:32.550Z,3.43
2023-05-09T23:13:34.119Z,2.50
2023-05-09T23:15:35.825Z,3.33
2023-05-09T23:17:41.541Z,2.50
2023-05-09T23:19:43.246Z,2.90
2023-05-09T23:21:44.986Z,2.90
2023-05-09T23:23:47.942Z,3.53
2023-05-09T23:25:49.609Z,2.87
2023-05-09T23:27:52.363Z,2.50
2023-05-09T23:29:55.301Z,2.80
2023-05-09T23:31:58.273Z,3.87
2023-05-09T23:34:01.289Z,3.23
2023-05-09T23:36:05.954Z,3.10
2023-05-09T23:38:07.554Z,4.40
2023-05-09T23:40:10.518Z,3.33
2023-05-09T23:42:14.696Z,3.90
2023-05-09T23:44:16.343Z,3.67
2023-05-09T23:46:19.669Z,4.00
2023-05-09T23:48:21.318Z,3.20
2023-05-09T23:50:24.224Z,3.70
2023-05-09T23:52:26.156Z,3.23
2023-05-09T23:54:30.326Z,3.27
2023-05-09T23:56:32.109Z,3.30
2023-05-09T23:58:33.756Z,2.60
